createdAt,value
2019-03-10T00:01:01.690Z,7.74
2019-03-10T00:03:05.790Z,7.78
2019-03-10T00:05:09.641Z,7.75
2019-03-10T00:07:13.366Z,7.74
2019-03-10T00:09:17.143Z,7.73
2019-03-10T00:11:20.861Z,7.72
2019-03-10T00:13:24.711Z,7.73
2019-03-10T00:15:28.651Z,7.72
2019-03-10T00:17:32.522Z,7.73
2019-03-10T00:19:36.862Z,7.73
2019-03-10T00:21:40.586Z,7.72
2019-03-10T00:23:44.440Z,7.70
2019-03-10T00:25:48.282Z,7.68
2019-03-10T00:27:52.096Z,7.66
2019-03-10T00:29:55.862Z,7.66
2019-03-10T00:31:59.716Z,7.65
2019-03-10T00:34:03.435Z,7.61
2019-03-10T00:36:07.213Z,7.53
2019-03-10T00:38:11.117Z,7.50
2019-03-10T00:40:45.375Z,7.44
2019-03-10T00:43:17.194Z,7.44
2019-03-10T00:46:08.287Z,7.43
2019-03-10T00:49:05.401Z,7.45
2019-03-10T00:51:34.469Z,7.47
2019-03-10T00:53:38.176Z,7.48
2019-03-10T00:55:41.956Z,7.43
2019-03-10T00:57:45.881Z,7.44
2019-03-10T00:59:49.659Z,7.43
2019-03-10T01:01:53.580Z,7.45
2019-03-10T01:03:57.304Z,7.46
2019-03-10T01:06:01.078Z,7.50
2019-03-10T01:08:04.917Z,7.54
2019-03-10T01:10:08.906Z,7.57
2019-03-10T01:12:12.888Z,7.59
2019-03-10T01:14:16.613Z,7.58
2019-03-10T01:16:20.937Z,7.57
2019-03-10T01:18:26.287Z,7.56
2019-03-10T01:20:31.080Z,7.58
2019-03-10T01:22:35.279Z,7.61
2019-03-10T01:24:38.954Z,7.59
2019-03-10T01:26:43.150Z,7.56
2019-03-10T01:28:46.912Z,7.53
2019-03-10T01:31:00.698Z,7.50
2019-03-10T01:33:30.464Z,7.47
2019-03-10T01:35:37.358Z,7.47
2019-03-10T01:37:41.193Z,7.42
2019-03-10T01:39:44.908Z,7.39
2019-03-10T01:41:48.755Z,7.36
2019-03-10T01:43:52.477Z,7.31
2019-03-10T01:45:56.213Z,7.27
2019-03-10T01:48:00.029Z,7.22
2019-03-10T01:50:03.938Z,7.16
2019-03-10T01:52:07.851Z,7.12
2019-03-10T01:54:11.673Z,7.08
2019-03-10T01:56:15.375Z,7.06
2019-03-10T01:58:19.086Z,7.04
2019-03-10T02:00:22.959Z,7.05
2019-03-10T02:02:26.828Z,7.03
2019-03-10T02:04:30.537Z,7.02
2019-03-10T02:06:34.276Z,7.02
2019-03-10T02:08:38.105Z,7.00
2019-03-10T02:10:41.865Z,7.00
2019-03-10T02:12:45.698Z,7.02
2019-03-10T02:14:49.411Z,7.03
2019-03-10T02:16:53.116Z,7.09
2019-03-10T02:18:56.967Z,7.14
2019-03-10T02:21:00.660Z,7.20
2019-03-10T02:23:04.497Z,7.24
2019-03-10T02:25:08.464Z,7.28
2019-03-10T02:27:12.180Z,7.32
2019-03-10T02:29:16.011Z,7.33
2019-03-10T02:31:19.729Z,7.33
2019-03-10T02:33:23.476Z,7.30
2019-03-10T02:35:27.174Z,7.30
2019-03-10T02:37:30.896Z,7.31
2019-03-10T02:39:34.602Z,7.30
2019-03-10T02:41:38.311Z,7.28
2019-03-10T02:43:42.031Z,7.27
2019-03-10T02:45:45.806Z,7.26
2019-03-10T02:47:49.599Z,7.27
2019-03-10T02:49:53.320Z,7.28
2019-03-10T02:51:57.068Z,7.32
2019-03-10T02:54:00.885Z,7.33
2019-03-10T02:56:04.681Z,7.31
2019-03-10T02:58:08.456Z,7.28
2019-03-10T03:00:12.486Z,7.23
2019-03-10T03:02:16.202Z,7.22
2019-03-10T03:04:19.942Z,7.22
2019-03-10T03:06:23.846Z,7.18
2019-03-10T03:08:27.799Z,7.13
2019-03-10T03:10:31.562Z,7.09
2019-03-10T03:12:35.351Z,7.08
2019-03-10T03:14:39.293Z,7.09
2019-03-10T03:16:42.997Z,7.10
2019-03-10T03:18:46.743Z,7.12
2019-03-10T03:20:50.462Z,7.10
2019-03-10T03:22:54.229Z,7.06
2019-03-10T03:24:57.900Z,7.02
2019-03-10T03:27:02.706Z,6.99
2019-03-10T03:29:06.499Z,6.93
2019-03-10T03:31:10.221Z,6.92
2019-03-10T03:33:14.012Z,6.89
2019-03-10T03:35:54.530Z,6.86
2019-03-10T03:37:58.348Z,6.84
2019-03-10T03:40:02.084Z,6.81
2019-03-10T03:42:05.768Z,6.79
2019-03-10T03:44:09.576Z,6.78
2019-03-10T03:46:13.281Z,6.78
2019-03-10T03:48:17.095Z,6.76
2019-03-10T03:50:20.809Z,6.76
2019-03-10T03:52:24.498Z,6.75
2019-03-10T03:54:28.294Z,6.73
2019-03-10T03:56:31.996Z,6.73
2019-03-10T03:58:35.797Z,6.73
2019-03-10T04:00:40.176Z,6.71
2019-03-10T04:02:44.023Z,6.72
2019-03-10T04:04:47.820Z,6.73
2019-03-10T04:06:51.527Z,6.77
2019-03-10T04:08:55.329Z,6.78
2019-03-10T04:10:59.055Z,6.78
2019-03-10T04:13:02.762Z,6.80
2019-03-10T04:15:06.646Z,6.84
2019-03-10T04:17:10.345Z,6.87
2019-03-10T04:19:14.223Z,6.92
2019-03-10T04:21:17.923Z,6.98
2019-03-10T04:23:21.631Z,7.03
2019-03-10T04:25:25.423Z,7.09
2019-03-10T04:27:29.121Z,7.14
2019-03-10T04:29:32.842Z,7.18
2019-03-10T04:31:36.553Z,7.20
2019-03-10T04:33:40.265Z,7.22
2019-03-10T04:37:52.819Z,7.25
2019-03-10T04:39:56.592Z,7.27
2019-03-10T04:42:00.317Z,7.28
2019-03-10T04:44:04.145Z,7.27
2019-03-10T04:46:07.852Z,7.28
2019-03-10T04:48:11.586Z,7.29
2019-03-10T04:50:16.508Z,7.31
2019-03-10T04:52:20.295Z,7.33
2019-03-10T04:54:49.352Z,7.35
2019-03-10T04:57:03.315Z,7.34
2019-03-10T04:59:07.011Z,7.30
2019-03-10T05:01:10.859Z,7.27
2019-03-10T05:03:14.645Z,7.27
2019-03-10T05:05:18.489Z,7.26
2019-03-10T05:07:22.194Z,7.26
2019-03-10T05:09:26.117Z,7.25
2019-03-10T05:11:29.818Z,7.22
2019-03-10T05:13:33.520Z,7.19
2019-03-10T05:15:37.254Z,7.14
2019-03-10T05:17:41.054Z,7.13
2019-03-10T05:19:44.796Z,7.11
2019-03-10T05:21:48.501Z,7.10
2019-03-10T05:23:52.493Z,7.10
2019-03-10T05:25:56.347Z,7.11
2019-03-10T05:28:00.061Z,7.11
2019-03-10T05:30:04.028Z,7.13
2019-03-10T05:32:07.729Z,7.12
2019-03-10T05:34:11.440Z,7.12
2019-03-10T05:36:15.320Z,7.14
2019-03-10T05:38:19.161Z,7.14
2019-03-10T05:40:22.913Z,7.13
2019-03-10T05:42:26.624Z,7.13
2019-03-10T05:44:30.412Z,7.10
2019-03-10T05:46:34.171Z,7.09
2019-03-10T05:48:37.946Z,7.08
2019-03-10T05:50:41.933Z,7.05
2019-03-10T05:52:45.633Z,7.06
2019-03-10T05:54:49.549Z,7.04
2019-03-10T05:56:53.248Z,7.04
2019-03-10T05:58:56.953Z,7.01
2019-03-10T06:01:00.785Z,6.95
2019-03-10T06:03:04.580Z,6.95
2019-03-10T06:05:08.468Z,6.97
2019-03-10T06:07:12.194Z,6.96
2019-03-10T06:09:15.901Z,6.96
2019-03-10T06:11:19.745Z,6.94
2019-03-10T06:13:23.473Z,6.93
2019-03-10T06:15:27.333Z,6.92
2019-03-10T06:17:31.044Z,6.92
2019-03-10T06:19:34.760Z,6.93
2019-03-10T06:21:38.488Z,6.95
2019-03-10T06:23:42.179Z,6.98
2019-03-10T06:25:45.918Z,7.01
2019-03-10T06:27:49.617Z,7.03
2019-03-10T06:29:53.325Z,7.04
2019-03-10T06:31:57.060Z,7.02
2019-03-10T06:34:00.767Z,7.05
2019-03-10T06:36:04.689Z,7.07
2019-03-10T06:38:08.396Z,7.07
2019-03-10T06:40:12.411Z,7.10
2019-03-10T06:42:16.126Z,7.11
2019-03-10T06:44:21.094Z,7.13
2019-03-10T06:46:24.959Z,7.14
2019-03-10T06:48:28.666Z,7.19
2019-03-10T06:50:32.392Z,7.23
2019-03-10T06:52:36.171Z,7.25
2019-03-10T06:54:39.879Z,7.27
2019-03-10T06:56:43.665Z,7.28
2019-03-10T06:58:47.371Z,7.31
2019-03-10T07:00:51.156Z,7.33
2019-03-10T07:02:54.852Z,7.32
2019-03-10T07:04:58.560Z,7.34
2019-03-10T07:07:02.354Z,7.36
2019-03-10T07:09:06.226Z,7.37
2019-03-10T07:11:10.033Z,7.40
2019-03-10T07:13:13.733Z,7.42
2019-03-10T07:15:17.536Z,7.43
2019-03-10T07:17:21.322Z,7.45
2019-03-10T07:19:25.023Z,7.47
2019-03-10T07:21:28.742Z,7.50
2019-03-10T07:23:32.451Z,7.52
2019-03-10T07:25:36.151Z,7.55
2019-03-10T07:28:02.007Z,7.55
2019-03-10T07:30:25.105Z,7.57
2019-03-10T07:32:40.310Z,7.58
2019-03-10T07:34:56.215Z,7.59
2019-03-10T07:37:31.244Z,7.59
2019-03-10T07:40:08.910Z,7.59
2019-03-10T07:42:30.964Z,7.60
2019-03-10T07:44:56.456Z,7.59
2019-03-10T07:47:21.994Z,7.62
2019-03-10T07:49:30.507Z,7.65
2019-03-10T07:51:40.559Z,7.65
2019-03-10T07:53:54.309Z,7.65
2019-03-10T07:56:04.551Z,7.68
2019-03-10T07:58:27.303Z,7.73
2019-03-10T08:00:37.759Z,7.72
2019-03-10T08:03:19.083Z,7.71
2019-03-10T08:05:40.133Z,7.71
2019-03-10T08:08:01.470Z,7.69
2019-03-10T08:10:15.100Z,7.69
2019-03-10T08:12:27.435Z,7.72
2019-03-10T08:14:38.904Z,7.66
2019-03-10T08:16:58.865Z,7.66
2019-03-10T08:19:11.965Z,7.66
2019-03-10T08:21:49.648Z,7.68
2019-03-10T08:24:08.312Z,7.72
2019-03-10T08:26:17.662Z,7.77
2019-03-10T08:28:30.048Z,7.74
2019-03-10T08:31:02.420Z,7.75
2019-03-10T08:33:27.932Z,7.76
2019-03-10T08:35:50.779Z,7.72
2019-03-10T08:38:06.665Z,7.69
2019-03-10T08:40:32.935Z,7.68
2019-03-10T08:42:51.184Z,7.73
2019-03-10T08:45:23.117Z,7.77
2019-03-10T08:52:59.770Z,7.75
2019-03-10T08:55:25.514Z,7.77
2019-03-10T08:57:50.778Z,7.75
2019-03-10T09:00:22.399Z,7.75
2019-03-10T09:02:43.690Z,7.74
2019-03-10T09:05:18.579Z,7.74
2019-03-10T09:07:40.440Z,7.78
2019-03-10T09:10:05.455Z,7.84
2019-03-10T09:12:15.026Z,7.90
2019-03-10T09:14:45.749Z,7.92
2019-03-10T09:17:01.980Z,7.93
2019-03-10T09:19:33.715Z,8.00
2019-03-10T09:22:02.959Z,8.03
2019-03-10T09:24:37.893Z,8.08
2019-03-10T09:26:53.488Z,8.16
2019-03-10T09:29:19.447Z,8.20
2019-03-10T09:31:44.941Z,8.22
2019-03-10T09:34:19.837Z,8.30
2019-03-10T09:36:40.973Z,8.42
2019-03-10T09:38:53.822Z,8.57
2019-03-10T09:41:15.057Z,8.73
2019-03-10T09:43:46.858Z,8.86
2019-03-10T09:45:59.572Z,9.00
2019-03-10T09:48:15.862Z,9.17
2019-03-10T09:50:30.495Z,9.30
2019-03-10T09:52:47.416Z,9.41
2019-03-10T09:55:04.748Z,9.48
2019-03-10T09:57:24.439Z,9.55
2019-03-10T09:59:53.322Z,9.65
2019-03-10T10:02:13.065Z,9.66
2019-03-10T10:04:38.912Z,9.73
2019-03-10T10:06:48.568Z,9.85
2019-03-10T10:09:11.416Z,9.95
2019-03-10T10:11:32.031Z,10.01
2019-03-10T10:13:41.126Z,10.13
2019-03-10T10:16:06.999Z,10.19
2019-03-10T10:18:29.866Z,10.31
2019-03-10T10:20:41.115Z,10.38
2019-03-10T10:22:53.773Z,10.53
2019-03-10T10:25:09.070Z,10.67
2019-03-10T10:27:23.379Z,10.85
2019-03-10T10:29:34.154Z,11.00
2019-03-10T10:31:56.894Z,11.05
2019-03-10T10:34:19.773Z,11.27
2019-03-10T10:36:41.091Z,11.40
2019-03-10T10:38:52.917Z,11.58
2019-03-10T10:41:15.875Z,11.63
2019-03-10T10:43:34.153Z,11.71
2019-03-10T10:45:55.514Z,11.86
2019-03-10T10:48:15.488Z,11.97
2019-03-10T10:50:26.126Z,12.11
2019-03-10T10:52:40.765Z,12.15
2019-03-10T10:55:08.854Z,12.21
2019-03-10T10:57:46.497Z,12.21
2019-03-10T10:59:55.356Z,12.39
2019-03-10T11:02:04.742Z,12.50
2019-03-10T11:04:45.753Z,12.74
2019-03-10T11:07:09.372Z,13.13
2019-03-10T11:09:19.095Z,13.53
2019-03-10T11:11:34.991Z,13.66
2019-03-10T11:14:00.708Z,14.20
2019-03-10T11:16:10.072Z,14.57
2019-03-10T11:18:31.130Z,14.72
2019-03-10T11:20:47.340Z,14.97
2019-03-10T11:23:10.079Z,15.24
2019-03-10T11:25:21.772Z,15.28
2019-03-10T11:27:31.020Z,14.95
2019-03-10T11:29:41.178Z,14.51
2019-03-10T11:32:01.193Z,14.25
2019-03-10T11:34:13.090Z,14.44
2019-03-10T11:36:22.661Z,14.91
2019-03-10T11:38:32.856Z,14.97
2019-03-10T11:41:04.903Z,15.26
2019-03-10T11:43:36.748Z,15.48
2019-03-10T11:45:47.892Z,15.82
2019-03-10T11:47:58.833Z,15.84
2019-03-10T11:50:19.489Z,15.86
2019-03-10T11:52:37.406Z,15.85
2019-03-10T11:54:58.633Z,15.91
2019-03-10T11:57:21.368Z,16.32
2019-03-10T11:59:29.146Z,16.46
2019-03-10T12:01:46.969Z,16.03
2019-03-10T12:04:19.006Z,15.79
2019-03-10T12:06:35.071Z,15.46
2019-03-10T12:08:58.405Z,14.92
2019-03-10T12:11:02.205Z,14.44
2019-03-10T12:13:06.026Z,14.18
2019-03-10T12:15:10.373Z,13.98
2019-03-10T12:17:14.083Z,13.95
2019-03-10T12:19:17.899Z,13.83
2019-03-10T12:21:21.720Z,13.71
2019-03-10T12:23:25.614Z,13.42
2019-03-10T12:25:29.347Z,13.14
2019-03-10T12:27:33.099Z,12.81
2019-03-10T12:29:36.836Z,12.58
2019-03-10T12:31:40.548Z,12.39
2019-03-10T12:33:44.261Z,12.25
2019-03-10T12:35:48.212Z,12.07
2019-03-10T12:37:51.915Z,11.95
2019-03-10T12:39:55.670Z,12.16
2019-03-10T12:41:59.391Z,12.24
2019-03-10T12:44:03.170Z,12.33
2019-03-10T12:46:06.902Z,12.50
2019-03-10T12:48:10.621Z,12.56
2019-03-10T12:50:14.507Z,12.48
2019-03-10T12:52:18.242Z,12.57
2019-03-10T12:54:21.939Z,12.68
2019-03-10T12:56:25.690Z,12.79
2019-03-10T12:58:29.405Z,12.81
2019-03-10T13:00:33.266Z,12.72
2019-03-10T13:02:37.074Z,12.60
2019-03-10T13:04:40.782Z,12.44
2019-03-10T13:06:44.661Z,12.29
2019-03-10T13:08:48.389Z,12.08
2019-03-10T13:10:52.201Z,11.95
2019-03-10T13:12:55.911Z,11.87
2019-03-10T13:15:00.196Z,11.80
2019-03-10T13:17:04.111Z,11.77
2019-03-10T13:19:07.897Z,11.83
2019-03-10T13:21:11.675Z,11.81
2019-03-10T13:23:15.468Z,11.86
2019-03-10T13:25:19.307Z,11.92
2019-03-10T13:27:23.097Z,11.99
2019-03-10T13:29:26.897Z,12.00
2019-03-10T13:31:30.713Z,11.99
2019-03-10T13:33:34.505Z,11.95
2019-03-10T13:35:38.420Z,11.94
2019-03-10T13:37:42.203Z,11.95
2019-03-10T13:39:46.036Z,12.05
2019-03-10T13:41:49.944Z,12.12
2019-03-10T13:43:53.857Z,12.37
2019-03-10T13:45:57.773Z,12.63
2019-03-10T13:48:01.573Z,12.76
2019-03-10T13:50:05.956Z,13.01
2019-03-10T13:52:09.725Z,13.24
2019-03-10T13:54:13.426Z,13.35
2019-03-10T13:56:17.342Z,13.42
2019-03-10T13:58:21.168Z,13.48
2019-03-10T14:00:25.366Z,13.63
2019-03-10T14:02:29.230Z,13.70
2019-03-10T14:04:33.107Z,13.62
2019-03-10T14:06:37.003Z,13.54
2019-03-10T14:08:40.717Z,13.45
2019-03-10T14:10:44.523Z,13.47
2019-03-10T14:12:48.233Z,13.58
2019-03-10T14:14:52.031Z,13.67
2019-03-10T14:16:55.862Z,13.81
2019-03-10T14:18:59.570Z,13.88
2019-03-10T14:21:03.491Z,13.92
2019-03-10T14:23:07.340Z,13.95
2019-03-10T14:25:11.211Z,13.95
2019-03-10T14:27:15.026Z,13.95
2019-03-10T14:29:18.796Z,13.93
2019-03-10T14:31:22.591Z,13.90
2019-03-10T14:33:26.405Z,13.86
2019-03-10T14:35:30.248Z,13.85
2019-03-10T14:37:34.088Z,13.89
2019-03-10T14:39:38.005Z,13.66
2019-03-10T14:41:41.852Z,13.37
2019-03-10T14:43:45.568Z,13.30
2019-03-10T14:45:49.344Z,13.40
2019-03-10T14:47:53.179Z,13.42
2019-03-10T14:49:56.880Z,13.26
2019-03-10T14:52:00.628Z,13.14
2019-03-10T14:54:04.423Z,13.08
2019-03-10T14:56:08.166Z,13.17
2019-03-10T14:58:11.929Z,13.11
2019-03-10T15:00:18.899Z,12.93
2019-03-10T15:02:22.765Z,12.87
2019-03-10T15:04:26.525Z,12.90
2019-03-10T15:06:30.304Z,13.02
2019-03-10T15:08:34.004Z,13.04
2019-03-10T15:10:37.786Z,13.06
2019-03-10T15:12:41.632Z,13.06
2019-03-10T15:14:45.352Z,12.95
2019-03-10T15:16:49.133Z,12.99
2019-03-10T15:18:52.836Z,12.98
2019-03-10T15:20:56.623Z,12.90
2019-03-10T15:23:00.363Z,12.88
2019-03-10T15:25:04.474Z,12.90
2019-03-10T15:27:08.231Z,13.01
2019-03-10T15:29:12.176Z,13.02
2019-03-10T15:31:16.080Z,13.01
2019-03-10T15:33:19.834Z,12.94
2019-03-10T15:35:23.643Z,12.88
2019-03-10T15:37:27.389Z,12.74
2019-03-10T15:39:31.128Z,12.68
2019-03-10T15:41:34.873Z,12.58
2019-03-10T15:43:38.628Z,12.49
2019-03-10T15:45:42.369Z,12.45
2019-03-10T15:47:46.183Z,12.44
2019-03-10T15:49:49.980Z,12.44
2019-03-10T15:51:53.813Z,12.38
2019-03-10T15:53:57.524Z,12.35
2019-03-10T15:56:01.245Z,12.36
2019-03-10T15:58:05.162Z,12.33
2019-03-10T16:00:12.913Z,12.23
2019-03-10T16:02:16.740Z,12.20
2019-03-10T16:04:22.067Z,12.12
2019-03-10T16:06:25.866Z,12.03
2019-03-10T16:08:29.654Z,11.94
2019-03-10T16:10:33.451Z,11.88
2019-03-10T16:12:37.376Z,11.92
2019-03-10T16:14:41.081Z,11.88
2019-03-10T16:16:44.867Z,11.84
2019-03-10T16:18:50.958Z,11.83
2019-03-10T16:20:54.111Z,11.74
2019-03-10T16:22:57.844Z,11.71
2019-03-10T16:25:01.564Z,11.61
2019-03-10T16:27:05.364Z,11.60
2019-03-10T16:29:09.138Z,11.55
2019-03-10T16:31:12.811Z,11.43
2019-03-10T16:33:16.560Z,11.37
2019-03-10T16:35:22.251Z,11.30
2019-03-10T16:37:25.874Z,11.25
2019-03-10T16:39:29.661Z,11.20
2019-03-10T16:41:33.373Z,11.10
2019-03-10T16:43:37.194Z,11.06
2019-03-10T16:45:40.916Z,11.00
2019-03-10T16:47:44.815Z,10.96
2019-03-10T16:49:48.545Z,10.90
2019-03-10T16:51:52.255Z,10.88
2019-03-10T16:53:56.181Z,10.78
2019-03-10T16:56:03.023Z,10.74
2019-03-10T16:58:05.435Z,10.62
2019-03-10T17:00:09.708Z,10.61
2019-03-10T17:02:13.419Z,10.53
2019-03-10T17:04:17.180Z,10.44
2019-03-10T17:06:20.929Z,10.45
2019-03-10T17:08:24.711Z,10.41
2019-03-10T17:10:28.586Z,10.40
2019-03-10T17:12:32.343Z,10.30
2019-03-10T17:14:36.119Z,10.24
2019-03-10T17:16:39.900Z,10.22
2019-03-10T17:18:43.656Z,10.12
2019-03-10T17:20:47.426Z,10.16
2019-03-10T17:22:51.324Z,10.11
2019-03-10T17:24:55.038Z,10.04
2019-03-10T17:26:58.966Z,10.00
2019-03-10T17:29:02.813Z,9.93
2019-03-10T17:31:06.608Z,9.89
2019-03-10T17:33:10.468Z,9.84
2019-03-10T17:35:14.545Z,9.79
2019-03-10T17:37:18.258Z,9.78
2019-03-10T17:39:22.167Z,9.81
2019-03-10T17:41:25.864Z,9.79
2019-03-10T17:43:29.706Z,9.76
2019-03-10T17:45:33.495Z,9.75
2019-03-10T17:47:37.221Z,9.66
2019-03-10T17:49:40.924Z,9.68
2019-03-10T17:51:44.632Z,9.67
2019-03-10T17:53:48.389Z,9.65
2019-03-10T17:55:52.245Z,9.63
2019-03-10T17:57:56.228Z,9.61
2019-03-10T17:59:59.941Z,9.56
2019-03-10T18:02:09.084Z,9.57
2019-03-10T18:04:09.144Z,9.58
2019-03-10T18:06:12.859Z,9.57
2019-03-10T18:08:16.689Z,9.56
2019-03-10T18:10:20.518Z,9.56
2019-03-10T18:12:24.231Z,9.54
2019-03-10T18:14:27.976Z,9.51
2019-03-10T18:16:33.483Z,9.48
2019-03-10T18:18:37.567Z,9.42
2019-03-10T18:20:41.285Z,9.36
2019-03-10T18:22:45.153Z,9.35
2019-03-10T18:24:48.899Z,9.28
2019-03-10T18:26:52.606Z,9.15
2019-03-10T18:28:56.404Z,9.12
2019-03-10T18:31:00.192Z,9.04
2019-03-10T18:33:03.988Z,9.01
2019-03-10T18:35:07.797Z,8.99
2019-03-10T18:37:11.495Z,8.95
2019-03-10T18:39:15.232Z,8.96
2019-03-10T18:41:18.936Z,8.95
2019-03-10T18:43:24.909Z,8.90
2019-03-10T18:45:28.143Z,8.88
2019-03-10T18:47:31.864Z,8.89
2019-03-10T18:49:35.614Z,8.87
2019-03-10T18:51:39.387Z,8.85
2019-03-10T18:53:43.149Z,8.82
2019-03-10T18:55:46.868Z,8.78
2019-03-10T18:57:50.791Z,8.76
2019-03-10T18:59:54.624Z,8.79
2019-03-10T19:01:58.310Z,8.80
2019-03-10T19:04:02.055Z,8.77
2019-03-10T19:06:05.913Z,8.79
2019-03-10T19:08:09.641Z,8.81
2019-03-10T19:10:13.888Z,8.84
2019-03-10T19:12:17.614Z,8.83
2019-03-10T19:14:21.355Z,8.78
2019-03-10T19:16:25.103Z,8.71
2019-03-10T19:18:28.818Z,8.64
2019-03-10T19:20:32.603Z,8.60
2019-03-10T19:22:36.395Z,8.55
2019-03-10T19:24:40.192Z,8.53
2019-03-10T19:26:43.904Z,8.54
2019-03-10T19:28:47.627Z,8.57
2019-03-10T19:30:51.332Z,8.63
2019-03-10T19:32:55.135Z,8.67
2019-03-10T19:34:58.874Z,8.67
2019-03-10T19:37:02.603Z,8.64
2019-03-10T19:39:07.428Z,8.61
2019-03-10T19:41:11.257Z,8.62
2019-03-10T19:43:14.967Z,8.68
2019-03-10T19:45:18.925Z,8.77
2019-03-10T19:47:22.634Z,8.77
2019-03-10T19:49:26.374Z,8.50
2019-03-10T19:51:30.186Z,7.96
2019-03-10T19:53:33.930Z,7.45
2019-03-10T19:55:37.659Z,7.08
2019-03-10T19:57:41.380Z,6.88
2019-03-10T19:59:45.195Z,6.74
2019-03-10T20:01:48.997Z,6.68
2019-03-10T20:03:52.833Z,6.60
2019-03-10T20:05:56.530Z,6.48
2019-03-10T20:08:00.236Z,6.36
2019-03-10T20:10:04.473Z,6.26
2019-03-10T20:12:09.032Z,6.20
2019-03-10T20:14:12.763Z,6.16
2019-03-10T20:16:16.476Z,6.07
2019-03-10T20:18:20.186Z,5.99
2019-03-10T20:20:24.026Z,5.93
2019-03-10T20:22:27.737Z,5.87
2019-03-10T20:24:31.557Z,5.82
2019-03-10T20:26:35.291Z,5.78
2019-03-10T20:28:39.135Z,5.76
2019-03-10T20:30:42.919Z,5.74
2019-03-10T20:32:46.663Z,5.73
2019-03-10T20:34:50.397Z,5.72
2019-03-10T20:36:54.085Z,5.69
2019-03-10T20:38:57.783Z,5.67
2019-03-10T20:41:01.654Z,5.65
2019-03-10T20:43:05.455Z,5.64
2019-03-10T20:45:09.411Z,5.62
2019-03-10T20:47:13.120Z,5.60
2019-03-10T20:49:16.847Z,5.56
2019-03-10T20:51:20.562Z,5.54
2019-03-10T20:53:24.266Z,5.51
2019-03-10T20:55:28.064Z,5.50
2019-03-10T20:57:31.776Z,5.50
2019-03-10T20:59:35.497Z,5.44
2019-03-10T21:01:39.354Z,5.36
2019-03-10T21:03:43.062Z,5.28
2019-03-10T21:05:46.815Z,5.23
2019-03-10T21:07:50.604Z,5.19
2019-03-10T21:09:54.443Z,5.18
2019-03-10T21:11:58.151Z,5.17
2019-03-10T21:14:01.845Z,5.13
2019-03-10T21:16:05.582Z,5.09
2019-03-10T21:18:09.300Z,5.12
2019-03-10T21:20:14.655Z,5.10
2019-03-10T21:22:20.876Z,5.07
2019-03-10T21:24:23.793Z,5.03
2019-03-10T21:26:27.640Z,5.01
2019-03-10T21:28:31.443Z,4.98
2019-03-10T21:30:35.376Z,4.97
2019-03-10T21:32:39.179Z,4.99
2019-03-10T21:34:42.916Z,4.97
2019-03-10T21:36:46.672Z,4.94
2019-03-10T21:38:50.531Z,4.92
2019-03-10T21:40:54.344Z,4.88
2019-03-10T21:42:58.060Z,4.86
2019-03-10T21:45:01.888Z,4.83
2019-03-10T21:47:05.720Z,4.82
2019-03-10T21:49:09.468Z,4.79
2019-03-10T21:51:13.255Z,4.77
2019-03-10T21:53:16.956Z,4.78
2019-03-10T21:55:20.840Z,4.81
2019-03-10T21:57:24.562Z,4.81
2019-03-10T21:59:28.319Z,4.79
2019-03-10T22:01:32.093Z,4.78
2019-03-10T22:03:35.937Z,4.76
2019-03-10T22:05:39.691Z,4.76
2019-03-10T22:07:43.486Z,4.83
2019-03-10T22:09:47.181Z,4.90
2019-03-10T22:11:51.029Z,4.89
2019-03-10T22:13:54.756Z,4.84
2019-03-10T22:15:58.697Z,4.83
2019-03-10T22:18:02.399Z,4.80
2019-03-10T22:20:06.787Z,4.81
2019-03-10T22:22:10.499Z,4.79
2019-03-10T22:24:14.199Z,4.77
2019-03-10T22:26:18.054Z,4.75
2019-03-10T22:28:21.846Z,4.70
2019-03-10T22:30:25.623Z,4.68
2019-03-10T22:32:29.298Z,4.69
2019-03-10T22:34:33.009Z,4.71
2019-03-10T22:36:36.846Z,4.73
2019-03-10T22:38:40.606Z,4.76
2019-03-10T22:40:44.455Z,4.76
2019-03-10T22:42:48.312Z,4.73
2019-03-10T22:44:52.034Z,4.75
2019-03-10T22:46:55.778Z,4.76
2019-03-10T22:48:59.478Z,4.80
2019-03-10T22:51:03.217Z,4.83
2019-03-10T22:53:06.939Z,4.86
2019-03-10T22:55:10.815Z,4.90
2019-03-10T22:57:14.637Z,4.92
2019-03-10T22:59:18.367Z,4.94
2019-03-10T23:01:22.272Z,4.96
2019-03-10T23:03:26.012Z,4.95
2019-03-10T23:05:29.738Z,4.93
2019-03-10T23:07:33.429Z,4.95
2019-03-10T23:09:37.136Z,4.95
2019-03-10T23:11:40.956Z,4.93
2019-03-10T23:13:44.666Z,4.89
2019-03-10T23:15:48.484Z,4.80
2019-03-10T23:17:52.172Z,4.74
2019-03-10T23:19:55.881Z,4.66
2019-03-10T23:21:59.690Z,4.62
2019-03-10T23:24:03.417Z,4.55
2019-03-10T23:26:07.132Z,4.48
2019-03-10T23:28:10.847Z,4.41
2019-03-10T23:30:14.819Z,4.39
2019-03-10T23:32:18.624Z,4.39
2019-03-10T23:34:22.338Z,4.39
2019-03-10T23:36:26.066Z,4.40
2019-03-10T23:38:29.772Z,4.39
2019-03-10T23:40:33.485Z,4.36
2019-03-10T23:42:37.283Z,4.32
2019-03-10T23:44:40.986Z,4.30
2019-03-10T23:46:44.777Z,4.23
2019-03-10T23:48:48.487Z,4.18
2019-03-10T23:50:52.274Z,4.21
2019-03-10T23:52:55.991Z,4.23
2019-03-10T23:54:59.692Z,4.32
2019-03-10T23:57:03.497Z,4.42
2019-03-10T23:59:07.198Z,4.50
